createdAt,value
2023-10-03T00:01:53.646Z,89.33
2023-10-03T00:06:55.322Z,89.44
2023-10-03T00:11:57.002Z,89.54
2023-10-03T00:16:59.086Z,89.48
2023-10-03T00:22:00.859Z,89.58
2023-10-03T00:27:05.812Z,89.71
2023-10-03T00:32:08.868Z,89.86
2023-10-03T00:37:12.040Z,90.28
2023-10-03T00:42:13.714Z,90.65
2023-10-03T00:47:15.735Z,91.02
2023-10-03T00:52:17.476Z,91.79
2023-10-03T00:57:19.655Z,92.47
2023-10-03T01:02:22.764Z,92.70
2023-10-03T01:07:24.464Z,92.64
2023-10-03T01:12:26.428Z,92.51
2023-10-03T01:17:31.614Z,92.46
2023-10-03T01:22:34.296Z,92.62
2023-10-03T01:27:35.962Z,92.83
2023-10-03T01:32:44.220Z,93.13
2023-10-03T01:37:46.476Z,93.38
2023-10-03T01:42:48.637Z,93.46
2023-10-03T01:47:51.061Z,93.18
2023-10-03T01:52:53.761Z,93.38
2023-10-03T01:57:55.428Z,93.52
2023-10-03T02:03:05.813Z,93.68
2023-10-03T02:08:16.629Z,93.50
2023-10-03T02:13:20.602Z,93.38
2023-10-03T02:18:22.618Z,93.30
2023-10-03T02:23:26.129Z,93.04
2023-10-03T02:28:28.784Z,92.78
2023-10-03T02:33:30.790Z,92.61
2023-10-03T02:38:37.570Z,92.54
2023-10-03T02:43:43.089Z,92.26
2023-10-03T02:48:44.748Z,91.91
2023-10-03T02:53:46.985Z,91.87
2023-10-03T02:58:48.822Z,91.92
2023-10-03T03:03:51.145Z,91.79
2023-10-03T03:08:53.245Z,91.58
2023-10-03T03:13:54.973Z,91.53
2023-10-03T03:18:56.671Z,91.28
2023-10-03T03:24:01.116Z,91.51
2023-10-03T03:29:07.475Z,91.85
2023-10-03T03:34:09.188Z,92.33
2023-10-03T03:39:17.154Z,92.75
2023-10-03T03:44:20.205Z,93.12
2023-10-03T03:49:23.907Z,93.55
2023-10-03T03:54:26.520Z,94.01
2023-10-03T03:59:28.740Z,94.44
2023-10-03T04:04:30.485Z,94.54
2023-10-03T04:09:32.732Z,95.12
2023-10-03T04:14:34.553Z,95.54
2023-10-03T04:19:36.518Z,95.85
2023-10-03T04:24:38.297Z,96.83
2023-10-03T04:29:40.007Z,97.22
2023-10-03T04:34:42.167Z,97.83
2023-10-03T04:39:44.245Z,97.99
2023-10-03T04:44:45.964Z,98.10
2023-10-03T04:49:47.698Z,98.26
2023-10-03T04:54:49.373Z,98.13
2023-10-03T04:59:51.376Z,97.99
2023-10-03T05:04:53.133Z,97.88
2023-10-03T05:09:55.119Z,97.37
2023-10-03T05:14:56.734Z,96.27
2023-10-03T05:19:59.897Z,94.62
2023-10-03T05:25:02.099Z,93.55
2023-10-03T05:30:06.108Z,92.62
2023-10-03T05:35:09.501Z,91.48
2023-10-03T05:40:19.713Z,89.90
2023-10-03T05:45:21.525Z,88.49
2023-10-03T05:50:24.524Z,85.11
2023-10-03T05:55:26.378Z,82.46
2023-10-03T06:00:28.457Z,79.61
2023-10-03T06:05:30.105Z,77.80
2023-10-03T06:10:31.716Z,75.65
2023-10-03T06:15:36.973Z,72.22
2023-10-03T06:20:39.097Z,69.38
2023-10-03T06:25:40.841Z,67.32
2023-10-03T06:30:42.766Z,65.86
2023-10-03T06:35:44.512Z,63.14
2023-10-03T06:40:47.038Z,61.60
2023-10-03T06:45:48.771Z,59.21
2023-10-03T06:50:51.688Z,57.26
2023-10-03T06:55:54.369Z,55.26
2023-10-03T07:00:56.531Z,54.46
2023-10-03T07:05:59.313Z,54.01
2023-10-03T07:11:01.870Z,50.35
2023-10-03T07:16:04.570Z,47.44
2023-10-03T07:21:06.360Z,44.20
2023-10-03T07:26:08.234Z,41.70
2023-10-03T07:31:13.401Z,37.67
2023-10-03T07:36:17.917Z,34.49
2023-10-03T07:41:20.785Z,33.56
2023-10-03T07:46:24.596Z,32.47
2023-10-03T07:51:30.671Z,31.49
2023-10-03T07:56:34.110Z,30.48
2023-10-03T08:01:57.679Z,28.89
2023-10-03T08:07:01.604Z,28.82
2023-10-03T08:12:12.302Z,27.82
2023-10-03T08:17:16.624Z,26.92
2023-10-03T08:22:20.700Z,25.78
2023-10-03T08:27:23.104Z,24.61
2023-10-03T08:32:28.335Z,23.51
2023-10-03T08:37:30.147Z,23.67
2023-10-03T08:42:35.056Z,22.88
2023-10-03T08:47:39.336Z,22.38
2023-10-03T08:52:49.719Z,22.34
2023-10-03T08:57:51.697Z,21.53
2023-10-03T09:03:09.874Z,20.84
2023-10-03T09:08:16.850Z,21.20
2023-10-03T09:13:26.831Z,21.07
2023-10-03T09:18:41.372Z,21.09
2023-10-03T09:24:27.338Z,21.56
2023-10-03T09:29:32.556Z,22.28
2023-10-03T09:34:40.809Z,23.54
2023-10-03T09:39:52.216Z,24.47
2023-10-03T09:45:00.678Z,25.09
2023-10-03T09:50:06.943Z,25.26
2023-10-03T09:55:21.722Z,25.00
2023-10-03T10:00:26.055Z,24.93
2023-10-03T10:05:29.849Z,23.86
2023-10-03T10:10:34.059Z,22.76
2023-10-03T10:16:01.749Z,21.26
2023-10-03T10:21:38.473Z,20.00
2023-10-03T10:26:40.622Z,19.49
2023-10-03T10:31:45.737Z,19.13
2023-10-03T10:37:03.159Z,20.12
2023-10-03T10:42:10.223Z,21.79
2023-10-03T10:47:14.939Z,23.02
2023-10-03T10:52:20.099Z,25.36
2023-10-03T10:57:27.391Z,27.91
2023-10-03T11:02:34.146Z,30.26
2023-10-03T11:07:37.623Z,32.02
2023-10-03T11:12:39.356Z,31.15
2023-10-03T11:17:48.985Z,29.30
2023-10-03T11:22:50.837Z,29.63
2023-10-03T11:27:52.581Z,29.25
2023-10-03T11:33:02.044Z,29.43
2023-10-03T11:38:07.238Z,28.85
2023-10-03T11:43:08.907Z,27.93
2023-10-03T11:48:19.825Z,27.09
2023-10-03T11:53:22.398Z,27.56
2023-10-03T11:58:24.192Z,27.81
2023-10-03T12:03:25.843Z,27.49
2023-10-03T12:08:28.656Z,26.81
2023-10-03T12:13:30.533Z,26.96
2023-10-03T12:18:32.322Z,26.91
2023-10-03T12:23:35.741Z,26.22
2023-10-03T12:28:37.447Z,25.17
2023-10-03T12:33:39.192Z,25.43
2023-10-03T12:38:40.922Z,26.35
2023-10-03T12:43:47.040Z,27.85
2023-10-03T12:48:48.838Z,30.05
2023-10-03T12:53:52.963Z,32.29
2023-10-03T12:58:57.906Z,34.49
2023-10-03T13:03:59.967Z,36.10
2023-10-03T13:09:01.892Z,37.77
2023-10-03T13:14:04.929Z,38.77
2023-10-03T13:19:08.168Z,39.58
2023-10-03T13:24:10.605Z,40.24
2023-10-03T13:29:12.715Z,40.94
2023-10-03T13:34:15.081Z,41.38
2023-10-03T13:39:19.829Z,41.80
2023-10-03T13:44:21.695Z,41.97
2023-10-03T13:49:25.133Z,41.95
2023-10-03T13:54:31.090Z,42.29
2023-10-03T13:59:33.306Z,42.32
2023-10-03T14:04:37.202Z,42.36
2023-10-03T14:09:40.103Z,42.49
2023-10-03T14:14:43.070Z,42.60
2023-10-03T14:19:45.000Z,42.89
2023-10-03T14:24:47.253Z,43.15
2023-10-03T14:29:48.860Z,43.33
2023-10-03T14:34:51.965Z,43.67
2023-10-03T14:39:53.645Z,43.92
2023-10-03T14:44:55.341Z,44.10
2023-10-03T14:49:57.911Z,44.26
2023-10-03T14:54:59.905Z,44.30
2023-10-03T15:00:02.264Z,44.48
2023-10-03T15:05:06.847Z,44.58
2023-10-03T15:10:10.049Z,44.67
2023-10-03T15:15:12.823Z,44.95
2023-10-03T15:20:17.457Z,45.12
2023-10-03T15:25:19.582Z,45.19
2023-10-03T15:30:21.323Z,45.35
2023-10-03T15:35:23.448Z,45.62
2023-10-03T15:40:28.291Z,45.81
2023-10-03T15:45:34.391Z,45.92
2023-10-03T15:50:37.079Z,46.03
2023-10-03T15:55:39.123Z,46.31
2023-10-03T16:00:41.566Z,46.41
2023-10-03T16:05:43.271Z,46.56
2023-10-03T16:10:45.004Z,46.69
2023-10-03T16:15:48.085Z,46.85
2023-10-03T16:20:50.014Z,47.10
2023-10-03T16:25:51.795Z,47.31
2023-10-03T16:30:53.676Z,47.39
2023-10-03T16:35:57.326Z,47.47
2023-10-03T16:40:59.061Z,47.83
2023-10-03T16:46:04.042Z,48.06
2023-10-03T16:51:05.852Z,48.41
2023-10-03T16:56:08.483Z,48.75
2023-10-03T17:01:10.287Z,49.07
2023-10-03T17:06:12.241Z,49.35
2023-10-03T17:11:14.529Z,49.74
2023-10-03T17:16:16.410Z,50.06
2023-10-03T17:21:21.695Z,50.37
2023-10-03T17:26:23.857Z,50.54
2023-10-03T17:31:25.909Z,50.80
2023-10-03T17:36:27.899Z,51.17
2023-10-03T17:41:29.606Z,51.41
2023-10-03T17:46:32.594Z,51.60
2023-10-03T17:51:35.320Z,51.71
2023-10-03T17:56:37.090Z,51.93
2023-10-03T18:01:38.842Z,52.05
2023-10-03T18:06:40.681Z,52.17
2023-10-03T18:11:42.527Z,52.35
2023-10-03T18:16:44.508Z,52.54
2023-10-03T18:21:46.742Z,52.71
2023-10-03T18:26:49.711Z,53.06
2023-10-03T18:31:51.386Z,53.20
2023-10-03T18:36:53.058Z,53.42
2023-10-03T18:41:54.778Z,53.64
2023-10-03T18:46:56.674Z,54.17
2023-10-03T18:51:58.493Z,54.64
2023-10-03T18:57:00.638Z,54.93
2023-10-03T19:02:02.403Z,55.11
2023-10-03T19:07:05.016Z,55.25
2023-10-03T19:12:07.164Z,55.40
2023-10-03T19:17:09.022Z,55.73
2023-10-03T19:22:11.413Z,56.14
2023-10-03T19:27:13.109Z,56.63
2023-10-03T19:32:18.118Z,57.06
2023-10-03T19:37:19.870Z,57.50
2023-10-03T19:42:22.636Z,57.93
2023-10-03T19:47:24.946Z,58.23
2023-10-03T19:52:26.590Z,58.49
2023-10-03T19:57:28.346Z,58.65
2023-10-03T20:02:29.999Z,59.72
2023-10-03T20:07:31.717Z,63.10
2023-10-03T20:12:35.444Z,66.41
2023-10-03T20:17:37.017Z,68.99
2023-10-03T20:22:42.735Z,71.83
2023-10-03T20:27:45.181Z,74.00
2023-10-03T20:32:46.897Z,75.59
2023-10-03T20:37:48.835Z,76.94
2023-10-03T20:42:50.921Z,78.28
2023-10-03T20:47:53.102Z,78.95
2023-10-03T20:52:55.002Z,79.61
2023-10-03T20:57:56.961Z,80.89
2023-10-03T21:02:58.908Z,83.34
2023-10-03T21:08:02.830Z,85.86
2023-10-03T21:13:04.661Z,84.74
2023-10-03T21:18:09.195Z,87.53
2023-10-03T21:23:10.889Z,91.38
2023-10-03T21:28:13.171Z,93.89
2023-10-03T21:33:14.909Z,97.14
2023-10-03T21:38:17.664Z,99.07
2023-10-03T21:43:19.297Z,99.97
2023-10-03T21:48:21.869Z,100.00
2023-10-03T21:53:23.608Z,100.00
2023-10-03T21:58:25.286Z,100.00
2023-10-03T22:03:28.190Z,100.00
2023-10-03T22:08:32.344Z,100.00
2023-10-03T22:13:34.094Z,100.00
2023-10-03T22:18:38.470Z,100.00
2023-10-03T22:23:40.304Z,100.00
2023-10-03T22:28:41.983Z,100.00
2023-10-03T22:33:44.087Z,100.00
2023-10-03T22:38:47.078Z,100.00
2023-10-03T22:43:49.166Z,100.00
2023-10-03T22:48:51.311Z,100.00
2023-10-03T22:53:53.166Z,100.00
2023-10-03T22:58:55.150Z,100.00
2023-10-03T23:03:56.848Z,100.00
2023-10-03T23:08:58.561Z,100.00
2023-10-03T23:14:00.852Z,100.00
2023-10-03T23:19:03.831Z,100.00
2023-10-03T23:24:10.509Z,100.00
2023-10-03T23:29:12.433Z,100.00
2023-10-03T23:34:16.507Z,100.00
2023-10-03T23:39:19.944Z,100.00
2023-10-03T23:44:21.664Z,100.00
2023-10-03T23:49:23.595Z,100.00
2023-10-03T23:54:25.247Z,100.00
2023-10-03T23:59:27.204Z,100.00
